This is the latest recevied weather packets stored in our database for station/object OE3AOG-10. If no packets are shown the sender has not sent any weather packets the latest 10 day(s).
| Time | Temp. | Humidity | Pressure | Rain* | Wind** | Luminosity | Snow |
|---|---|---|---|---|---|---|---|
| 1778043274 | 15.56° C | 60% | 1010.7 hPa | - | - | - | - |
| 1778039674 | 13.33° C | 60% | 1010.3 hPa | - | - | - | - |
| 1778036075 | 13.89° C | 59% | 1009.9 hPa | - | - | - | - |
| 1778032475 | 13.89° C | 58% | 1009.6 hPa | - | - | - | - |
| 1778028874 | 13.89° C | 56% | 1009.3 hPa | - | - | - | - |
| 1778025274 | 13.89° C | 54% | 1008.5 hPa | - | - | - | - |
| 1778021674 | 14.44° C | 52% | 1008.1 hPa | - | - | - | - |
| 1778018073 | 15° C | 48% | 1007.5 hPa | - | - | - | - |
| 1778014474 | 17.78° C | 44% | 1006.9 hPa | - | - | - | - |
| 1778010874 | 18.33° C | 42% | 1006.4 hPa | - | - | - | - |
| 1778007274 | 18.89° C | 39% | 1006.3 hPa | - | - | - | - |
| 1778003674 | 20° C | 36% | 1006.1 hPa | - | - | - | - |
| 1778000073 | 22.22° C | 33% | 1006.4 hPa | - | - | - | - |
| 1777996473 | 23.89° C | 31% | 1006.9 hPa | - | - | - | - |
| 1777992874 | 24.44° C | 28% | 1007.3 hPa | - | - | - | - |
| 1777989273 | 28.89° C | 23% | 1007.3 hPa | - | - | - | - |
| 1777985673 | 28.89° C | 22% | 1007.6 hPa | - | - | - | - |
| 1777982073 | 29.44° C | 23% | 1008 hPa | - | - | - | - |
| 1777978473 | 29.44° C | 29% | 1008.7 hPa | - | - | - | - |
| 1777974872 | 25.56° C | 38% | 1009.7 hPa | - | - | - | - |
| 1777971272 | 21.67° C | 42% | 1010.5 hPa | - | - | - | - |
| 1777967672 | 20.56° C | 47% | 1010.7 hPa | - | - | - | - |
| 1777964071 | 16.67° C | 54% | 1011.1 hPa | - | - | - | - |
| 1777960471 | 13.89° C | 55% | 1010.9 hPa | - | - | - | - |
| 1777956871 | 13.33° C | 56% | 1010.8 hPa | - | - | - | - |
* Rain since midnight (hover to see other rain measurements)
** Current wind speed in m/s (hover to see current wind gust speed)